sensor_id;sensor_type;location;lat;lon;timestamp;temperature;humidity
51589;DHT22;37671;53.258;6.460;2022-07-29T05:03:49;14.70;99.90
51589;DHT22;37671;53.258;6.460;2022-07-29T05:06:14;14.70;99.90
51589;DHT22;37671;53.258;6.460;2022-07-29T05:08:40;14.80;99.90
51589;DHT22;37671;53.258;6.460;2022-07-29T05:11:05;14.80;99.90
51589;DHT22;37671;53.258;6.460;2022-07-29T05:13:31;14.90;99.90
51589;DHT22;37671;53.258;6.460;2022-07-29T05:15:56;14.90;99.90
51589;DHT22;37671;53.258;6.460;2022-07-29T05:18:24;14.90;99.90
51589;DHT22;37671;53.258;6.460;2022-07-29T05:20:50;14.90;99.90
51589;DHT22;37671;53.258;6.460;2022-07-29T05:23:16;15.00;99.90
51589;DHT22;37671;53.258;6.460;2022-07-29T05:25:42;15.00;99.90
51589;DHT22;37671;53.258;6.460;2022-07-29T05:28:07;15.00;99.90
51589;DHT22;37671;53.258;6.460;2022-07-29T05:30:33;15.10;99.90
51589;DHT22;37671;53.258;6.460;2022-07-29T05:32:58;15.10;99.90
51589;DHT22;37671;53.258;6.460;2022-07-29T05:35:24;15.20;99.90
51589;DHT22;37671;53.258;6.460;2022-07-29T05:37:49;15.20;99.90
51589;DHT22;37671;53.258;6.460;2022-07-29T05:40:15;15.30;99.90
51589;DHT22;37671;53.258;6.460;2022-07-29T05:42:41;15.30;99.90
51589;DHT22;37671;53.258;6.460;2022-07-29T05:45:06;15.40;99.90
51589;DHT22;37671;53.258;6.460;2022-07-29T05:47:32;15.40;99.90
51589;DHT22;37671;53.258;6.460;2022-07-29T05:49:57;15.50;99.90
51589;DHT22;37671;53.258;6.460;2022-07-29T05:52:23;15.70;99.90
51589;DHT22;37671;53.258;6.460;2022-07-29T05:54:49;15.90;99.90
51589;DHT22;37671;53.258;6.460;2022-07-29T05:57:15;15.80;99.90
51589;DHT22;37671;53.258;6.460;2022-07-29T05:59:40;15.80;99.90
51589;DHT22;37671;53.258;6.460;2022-07-29T06:02:07;15.80;99.90
51589;DHT22;37671;53.258;6.460;2022-07-29T06:04:33;15.80;99.90
51589;DHT22;37671;53.258;6.460;2022-07-29T06:06:58;15.80;99.90
51589;DHT22;37671;53.258;6.460;2022-07-29T06:09:24;15.90;99.90
51589;DHT22;37671;53.258;6.460;2022-07-29T06:11:49;15.90;99.90
51589;DHT22;37671;53.258;6.460;2022-07-29T06:14:15;16.00;99.90
51589;DHT22;37671;53.258;6.460;2022-07-29T06:16:40;16.00;99.90
51589;DHT22;37671;53.258;6.460;2022-07-29T06:19:06;17.10;99.90
51589;DHT22;37671;53.258;6.460;2022-07-29T06:21:32;16.20;99.90
51589;DHT22;37671;53.258;6.460;2022-07-29T06:23:57;16.20;99.90
51589;DHT22;37671;53.258;6.460;2022-07-29T06:26:23;16.40;99.90
51589;DHT22;37671;53.258;6.460;2022-07-29T06:28:48;16.50;99.90
51589;DHT22;37671;53.258;6.460;2022-07-29T06:31:14;16.70;99.90
51589;DHT22;37671;53.258;6.460;2022-07-29T06:33:39;16.80;99.90
51589;DHT22;37671;53.258;6.460;2022-07-29T06:36:05;16.90;99.90
51589;DHT22;37671;53.258;6.460;2022-07-29T06:38:31;16.90;99.90
51589;DHT22;37671;53.258;6.460;2022-07-29T06:40:58;17.00;99.90
51589;DHT22;37671;53.258;6.460;2022-07-29T06:43:36;17.20;99.90
51589;DHT22;37671;53.258;6.460;2022-07-29T06:46:07;17.70;99.90
51589;DHT22;37671;53.258;6.460;2022-07-29T06:48:33;17.00;99.90
51589;DHT22;37671;53.258;6.460;2022-07-29T06:50:59;17.10;99.90
51589;DHT22;37671;53.258;6.460;2022-07-29T06:53:25;17.30;99.90
51589;DHT22;37671;53.258;6.460;2022-07-29T06:55:50;17.40;99.90
51589;DHT22;37671;53.258;6.460;2022-07-29T06:58:16;17.30;99.90
51589;DHT22;37671;53.258;6.460;2022-07-29T07:00:43;17.40;99.90
51589;DHT22;37671;53.258;6.460;2022-07-29T07:03:09;17.50;99.90
51589;DHT22;37671;53.258;6.460;2022-07-29T07:05:35;17.40;99.90
51589;DHT22;37671;53.258;6.460;2022-07-29T07:08:00;17.80;99.90
51589;DHT22;37671;53.258;6.460;2022-07-29T07:10:26;17.50;99.90
51589;DHT22;37671;53.258;6.460;2022-07-29T07:12:52;17.50;99.90
51589;DHT22;37671;53.258;6.460;2022-07-29T07:15:17;17.50;99.90
51589;DHT22;37671;53.258;6.460;2022-07-29T07:17:50;17.50;99.90
51589;DHT22;37671;53.258;6.460;2022-07-29T07:20:15;17.50;99.90
51589;DHT22;37671;53.258;6.460;2022-07-29T07:22:41;17.50;99.90
51589;DHT22;37671;53.258;6.460;2022-07-29T07:25:07;17.50;99.90
51589;DHT22;37671;53.258;6.460;2022-07-29T07:27:32;17.50;99.90
51589;DHT22;37671;53.258;6.460;2022-07-29T07:29:58;17.50;99.90
51589;DHT22;37671;53.258;6.460;2022-07-29T07:32:23;17.70;99.90
51589;DHT22;37671;53.258;6.460;2022-07-29T07:34:49;17.60;99.90
51589;DHT22;37671;53.258;6.460;2022-07-29T07:37:14;17.70;99.90
51589;DHT22;37671;53.258;6.460;2022-07-29T07:39:41;17.70;99.90
51589;DHT22;37671;53.258;6.460;2022-07-29T07:42:06;17.70;99.90
51589;DHT22;37671;53.258;6.460;2022-07-29T07:44:32;17.80;99.90
51589;DHT22;37671;53.258;6.460;2022-07-29T07:46:57;18.40;99.90
51589;DHT22;37671;53.258;6.460;2022-07-29T07:49:23;18.00;99.90
51589;DHT22;37671;53.258;6.460;2022-07-29T07:51:49;18.00;99.90
51589;DHT22;37671;53.258;6.460;2022-07-29T07:54:14;18.10;99.90
51589;DHT22;37671;53.258;6.460;2022-07-29T07:56:40;18.10;99.90
51589;DHT22;37671;53.258;6.460;2022-07-29T07:59:05;18.20;99.90
51589;DHT22;37671;53.258;6.460;2022-07-29T08:01:31;18.50;99.90
51589;DHT22;37671;53.258;6.460;2022-07-29T08:03:56;18.30;99.90
51589;DHT22;37671;53.258;6.460;2022-07-29T08:06:22;18.40;99.90
51589;DHT22;37671;53.258;6.460;2022-07-29T08:08:50;18.50;99.90
51589;DHT22;37671;53.258;6.460;2022-07-29T08:11:15;18.30;99.90
51589;DHT22;37671;53.258;6.460;2022-07-29T08:13:42;18.40;99.90
51589;DHT22;37671;53.258;6.460;2022-07-29T08:16:08;18.20;99.90
51589;DHT22;37671;53.258;6.460;2022-07-29T08:18:38;18.20;99.90
51589;DHT22;37671;53.258;6.460;2022-07-29T08:21:04;18.10;99.90
51589;DHT22;37671;53.258;6.460;2022-07-29T08:23:30;18.20;99.90
51589;DHT22;37671;53.258;6.460;2022-07-29T08:26:05;18.20;99.90
51589;DHT22;37671;53.258;6.460;2022-07-29T08:28:31;18.20;99.90
51589;DHT22;37671;53.258;6.460;2022-07-29T08:30:56;18.30;99.90
51589;DHT22;37671;53.258;6.460;2022-07-29T08:33:22;18.40;99.90
51589;DHT22;37671;53.258;6.460;2022-07-29T08:35:47;18.40;99.90
51589;DHT22;37671;53.258;6.460;2022-07-29T08:38:15;18.60;99.90
51589;DHT22;37671;53.258;6.460;2022-07-29T08:40:40;18.60;99.90
51589;DHT22;37671;53.258;6.460;2022-07-29T08:43:07;18.80;99.90
51589;DHT22;37671;53.258;6.460;2022-07-29T08:45:43;18.90;99.90
51589;DHT22;37671;53.258;6.460;2022-07-29T08:48:10;18.90;99.90
51589;DHT22;37671;53.258;6.460;2022-07-29T08:50:36;18.90;99.90
51589;DHT22;37671;53.258;6.460;2022-07-29T08:53:02;19.00;99.90
51589;DHT22;37671;53.258;6.460;2022-07-29T08:55:28;19.00;99.90
51589;DHT22;37671;53.258;6.460;2022-07-29T08:57:54;19.20;99.90
51589;DHT22;37671;53.258;6.460;2022-07-29T09:00:21;19.10;99.90
51589;DHT22;37671;53.258;6.460;2022-07-29T09:02:51;18.80;99.90
51589;DHT22;37671;53.258;6.460;2022-07-29T09:05:20;18.80;99.90
51589;DHT22;37671;53.258;6.460;2022-07-29T09:07:45;18.80;99.90
51589;DHT22;37671;53.258;6.460;2022-07-29T09:10:13;18.90;99.90
51589;DHT22;37671;53.258;6.460;2022-07-29T09:12:38;19.20;99.90
51589;DHT22;37671;53.258;6.460;2022-07-29T09:15:05;18.80;99.90
51589;DHT22;37671;53.258;6.460;2022-07-29T09:17:49;18.90;99.90
51589;DHT22;37671;53.258;6.460;2022-07-29T09:20:19;19.00;99.90
51589;DHT22;37671;53.258;6.460;2022-07-29T09:22:45;19.00;99.90
51589;DHT22;37671;53.258;6.460;2022-07-29T09:25:38;19.10;99.90
51589;DHT22;37671;53.258;6.460;2022-07-29T09:28:08;19.30;99.90
51589;DHT22;37671;53.258;6.460;2022-07-29T09:30:35;19.30;99.90
51589;DHT22;37671;53.258;6.460;2022-07-29T09:33:02;19.50;99.90
51589;DHT22;37671;53.258;6.460;2022-07-29T09:35:29;19.60;99.90
51589;DHT22;37671;53.258;6.460;2022-07-29T09:37:55;19.50;99.90
51589;DHT22;37671;53.258;6.460;2022-07-29T09:40:23;19.50;99.90
51589;DHT22;37671;53.258;6.460;2022-07-29T09:42:50;19.50;99.90
51589;DHT22;37671;53.258;6.460;2022-07-29T09:45:36;19.60;99.90
51589;DHT22;37671;53.258;6.460;2022-07-29T09:48:23;19.60;99.90
51589;DHT22;37671;53.258;6.460;2022-07-29T09:50:50;19.50;99.90
51589;DHT22;37671;53.258;6.460;2022-07-29T09:53:33;19.60;99.90
51589;DHT22;37671;53.258;6.460;2022-07-29T09:55:59;19.60;99.90
51589;DHT22;37671;53.258;6.460;2022-07-29T09:58:25;19.60;99.90
51589;DHT22;37671;53.258;6.460;2022-07-29T10:00:52;19.60;99.90
51589;DHT22;37671;53.258;6.460;2022-07-29T10:03:18;19.70;99.90
51589;DHT22;37671;53.258;6.460;2022-07-29T10:05:45;19.70;99.90
51589;DHT22;37671;53.258;6.460;2022-07-29T10:08:12;19.70;99.90
51589;DHT22;37671;53.258;6.460;2022-07-29T10:10:41;19.60;99.90
51589;DHT22;37671;53.258;6.460;2022-07-29T10:13:09;19.60;99.90
51589;DHT22;37671;53.258;6.460;2022-07-29T10:15:39;19.50;99.90
51589;DHT22;37671;53.258;6.460;2022-07-29T10:18:07;19.50;99.90
51589;DHT22;37671;53.258;6.460;2022-07-29T10:20:34;19.50;99.90
51589;DHT22;37671;53.258;6.460;2022-07-29T10:23:00;19.50;99.90
51589;DHT22;37671;53.258;6.460;2022-07-29T10:25:26;19.50;99.90
51589;DHT22;37671;53.258;6.460;2022-07-29T10:27:53;19.50;99.90
51589;DHT22;37671;53.258;6.460;2022-07-29T10:30:20;19.60;99.90
51589;DHT22;37671;53.258;6.460;2022-07-29T10:41:06;19.90;99.90
51589;DHT22;37671;53.258;6.460;2022-07-29T10:44:04;19.90;99.90
51589;DHT22;37671;53.258;6.460;2022-07-29T10:46:40;19.80;99.90
51589;DHT22;37671;53.258;6.460;2022-07-29T10:49:06;19.80;99.90
51589;DHT22;37671;53.258;6.460;2022-07-29T10:52:02;19.80;99.90
51589;DHT22;37671;53.258;6.460;2022-07-29T10:54:41;19.80;99.90
51589;DHT22;37671;53.258;6.460;2022-07-29T11:00:24;19.80;99.90
51589;DHT22;37671;53.258;6.460;2022-07-29T11:05:06;19.80;99.90
51589;DHT22;37671;53.258;6.460;2022-07-29T11:07:32;19.80;99.90
51589;DHT22;37671;53.258;6.460;2022-07-29T11:10:21;19.80;99.90
51589;DHT22;37671;53.258;6.460;2022-07-29T11:12:48;19.90;99.90
51589;DHT22;37671;53.258;6.460;2022-07-29T11:15:19;19.90;99.90
51589;DHT22;37671;53.258;6.460;2022-07-29T11:20:51;19.80;99.90
51589;DHT22;37671;53.258;6.460;2022-07-29T11:31:38;20.20;99.90
51589;DHT22;37671;53.258;6.460;2022-07-29T11:39:38;20.10;99.90
51589;DHT22;37671;53.258;6.460;2022-07-29T11:47:23;20.20;99.90
51589;DHT22;37671;53.258;6.460;2022-07-29T11:49:53;20.20;99.90
51589;DHT22;37671;53.258;6.460;2022-07-29T11:52:20;20.40;99.90
51589;DHT22;37671;53.258;6.460;2022-07-29T11:54:48;20.60;99.90
51589;DHT22;37671;53.258;6.460;2022-07-29T11:57:16;20.70;99.90
51589;DHT22;37671;53.258;6.460;2022-07-29T11:59:44;20.30;99.90
51589;DHT22;37671;53.258;6.460;2022-07-29T12:02:10;20.50;99.90
51589;DHT22;37671;53.258;6.460;2022-07-29T12:04:53;20.70;99.90
51589;DHT22;37671;53.258;6.460;2022-07-29T12:07:26;20.90;99.90
51589;DHT22;37671;53.258;6.460;2022-07-29T12:09:53;21.10;99.90
51589;DHT22;37671;53.258;6.460;2022-07-29T12:12:20;21.10;99.90
51589;DHT22;37671;53.258;6.460;2022-07-29T12:14:46;21.30;99.90
51589;DHT22;37671;53.258;6.460;2022-07-29T12:17:31;21.70;99.90
51589;DHT22;37671;53.258;6.460;2022-07-29T12:20:01;22.00;99.90
51589;DHT22;37671;53.258;6.460;2022-07-29T12:22:36;22.00;99.90
51589;DHT22;37671;53.258;6.460;2022-07-29T12:25:03;22.50;99.90
51589;DHT22;37671;53.258;6.460;2022-07-29T12:27:30;23.00;99.90
51589;DHT22;37671;53.258;6.460;2022-07-29T12:30:00;23.20;99.90
51589;DHT22;37671;53.258;6.460;2022-07-29T12:32:38;23.20;99.90
51589;DHT22;37671;53.258;6.460;2022-07-29T12:35:09;23.00;99.90
51589;DHT22;37671;53.258;6.460;2022-07-29T12:37:36;23.10;99.90
51589;DHT22;37671;53.258;6.460;2022-07-29T12:40:04;23.10;99.90
51589;DHT22;37671;53.258;6.460;2022-07-29T12:42:31;22.90;99.90
51589;DHT22;37671;53.258;6.460;2022-07-29T12:45:00;22.70;99.90
51589;DHT22;37671;53.258;6.460;2022-07-29T12:47:29;22.70;99.90
51589;DHT22;37671;53.258;6.460;2022-07-29T12:50:14;23.00;99.90
51589;DHT22;37671;53.258;6.460;2022-07-29T12:52:44;23.50;99.90
51589;DHT22;37671;53.258;6.460;2022-07-29T12:55:10;23.90;99.90
51589;DHT22;37671;53.258;6.460;2022-07-29T12:57:46;24.30;99.90
51589;DHT22;37671;53.258;6.460;2022-07-29T13:00:13;23.70;99.90
51589;DHT22;37671;53.258;6.460;2022-07-29T13:02:40;23.50;99.90
51589;DHT22;37671;53.258;6.460;2022-07-29T13:05:08;23.70;99.90
51589;DHT22;37671;53.258;6.460;2022-07-29T13:07:34;23.90;99.90
51589;DHT22;37671;53.258;6.460;2022-07-29T13:10:14;24.10;99.90
51589;DHT22;37671;53.258;6.460;2022-07-29T13:15:32;24.50;99.90
51589;DHT22;37671;53.258;6.460;2022-07-29T13:17:58;24.60;99.90
51589;DHT22;37671;53.258;6.460;2022-07-29T13:20:25;24.80;99.90
51589;DHT22;37671;53.258;6.460;2022-07-29T13:22:56;24.30;99.90
51589;DHT22;37671;53.258;6.460;2022-07-29T13:27:54;24.60;99.90
51589;DHT22;37671;53.258;6.460;2022-07-29T13:30:21;24.70;99.50
51589;DHT22;37671;53.258;6.460;2022-07-29T13:32:47;24.50;97.30
51589;DHT22;37671;53.258;6.460;2022-07-29T13:35:13;24.40;97.60
51589;DHT22;37671;53.258;6.460;2022-07-29T13:37:39;24.70;99.40
51589;DHT22;37671;53.258;6.460;2022-07-29T13:40:09;24.60;96.60
51589;DHT22;37671;53.258;6.460;2022-07-29T13:42:35;24.50;97.60
51589;DHT22;37671;53.258;6.460;2022-07-29T13:45:01;24.70;98.60
51589;DHT22;37671;53.258;6.460;2022-07-29T13:47:27;24.60;96.00
51589;DHT22;37671;53.258;6.460;2022-07-29T13:49:54;24.40;95.20
51589;DHT22;37671;53.258;6.460;2022-07-29T13:52:20;24.40;95.70
51589;DHT22;37671;53.258;6.460;2022-07-29T13:54:46;24.40;97.10
51589;DHT22;37671;53.258;6.460;2022-07-29T13:57:12;24.50;97.50
51589;DHT22;37671;53.258;6.460;2022-07-29T13:59:41;24.50;97.80
51589;DHT22;37671;53.258;6.460;2022-07-29T14:02:08;24.60;98.70
51589;DHT22;37671;53.258;6.460;2022-07-29T14:04:34;24.70;96.80
51589;DHT22;37671;53.258;6.460;2022-07-29T14:07:00;24.80;98.20
51589;DHT22;37671;53.258;6.460;2022-07-29T14:09:26;24.80;97.30
51589;DHT22;37671;53.258;6.460;2022-07-29T14:11:52;24.70;96.00
51589;DHT22;37671;53.258;6.460;2022-07-29T14:14:18;24.70;96.40
51589;DHT22;37671;53.258;6.460;2022-07-29T14:16:44;24.90;96.00
51589;DHT22;37671;53.258;6.460;2022-07-29T14:19:09;24.90;96.70
51589;DHT22;37671;53.258;6.460;2022-07-29T14:21:36;25.10;95.90
51589;DHT22;37671;53.258;6.460;2022-07-29T14:24:02;25.00;93.80
51589;DHT22;37671;53.258;6.460;2022-07-29T14:26:27;24.80;94.60
51589;DHT22;37671;53.258;6.460;2022-07-29T14:28:53;24.90;94.00
51589;DHT22;37671;53.258;6.460;2022-07-29T14:31:19;25.10;93.80
51589;DHT22;37671;53.258;6.460;2022-07-29T14:33:44;25.10;93.50
51589;DHT22;37671;53.258;6.460;2022-07-29T14:36:10;25.10;93.40
51589;DHT22;37671;53.258;6.460;2022-07-29T14:38:36;24.90;92.90
51589;DHT22;37671;53.258;6.460;2022-07-29T14:41:03;24.90;93.70
51589;DHT22;37671;53.258;6.460;2022-07-29T14:43:28;25.00;93.20
51589;DHT22;37671;53.258;6.460;2022-07-29T14:45:54;25.10;92.90
51589;DHT22;37671;53.258;6.460;2022-07-29T14:48:20;25.10;93.80
51589;DHT22;37671;53.258;6.460;2022-07-29T14:50:45;25.00;92.50
51589;DHT22;37671;53.258;6.460;2022-07-29T14:53:11;25.10;92.70
51589;DHT22;37671;53.258;6.460;2022-07-29T14:55:39;25.10;92.20
51589;DHT22;37671;53.258;6.460;2022-07-29T14:58:05;25.10;91.70
51589;DHT22;37671;53.258;6.460;2022-07-29T15:00:30;25.00;92.40
51589;DHT22;37671;53.258;6.460;2022-07-29T15:02:58;24.70;92.60
51589;DHT22;37671;53.258;6.460;2022-07-29T15:05:23;24.60;91.70
51589;DHT22;37671;53.258;6.460;2022-07-29T15:07:49;24.80;92.10
51589;DHT22;37671;53.258;6.460;2022-07-29T15:10:14;24.60;90.60
51589;DHT22;37671;53.258;6.460;2022-07-29T15:12:39;24.40;91.60
51589;DHT22;37671;53.258;6.460;2022-07-29T15:15:05;24.20;92.30
51589;DHT22;37671;53.258;6.460;2022-07-29T15:17:32;24.00;92.10
51589;DHT22;37671;53.258;6.460;2022-07-29T15:19:58;23.90;92.60
51589;DHT22;37671;53.258;6.460;2022-07-29T15:22:23;23.80;93.80
51589;DHT22;37671;53.258;6.460;2022-07-29T15:24:49;23.60;94.10
51589;DHT22;37671;53.258;6.460;2022-07-29T15:27:14;23.60;94.60
51589;DHT22;37671;53.258;6.460;2022-07-29T15:29:40;23.50;94.70
51589;DHT22;37671;53.258;6.460;2022-07-29T15:32:06;23.60;95.60
51589;DHT22;37671;53.258;6.460;2022-07-29T15:34:32;23.70;95.80
51589;DHT22;37671;53.258;6.460;2022-07-29T15:36:57;23.60;95.70
51589;DHT22;37671;53.258;6.460;2022-07-29T15:39:23;23.60;95.40
51589;DHT22;37671;53.258;6.460;2022-07-29T15:41:48;23.60;95.60
51589;DHT22;37671;53.258;6.460;2022-07-29T15:44:14;23.60;94.80
51589;DHT22;37671;53.258;6.460;2022-07-29T15:46:40;23.50;95.60
51589;DHT22;37671;53.258;6.460;2022-07-29T15:49:24;23.50;95.10
51589;DHT22;37671;53.258;6.460;2022-07-29T15:52:00;23.50;94.90
51589;DHT22;37671;53.258;6.460;2022-07-29T15:54:31;23.40;95.30
51589;DHT22;37671;53.258;6.460;2022-07-29T15:56:57;23.40;95.40
51589;DHT22;37671;53.258;6.460;2022-07-29T15:59:25;23.30;95.50
51589;DHT22;37671;53.258;6.460;2022-07-29T16:01:51;23.40;95.60
51589;DHT22;37671;53.258;6.460;2022-07-29T16:04:16;23.30;95.70
51589;DHT22;37671;53.258;6.460;2022-07-29T16:06:42;23.30;94.90
51589;DHT22;37671;53.258;6.460;2022-07-29T16:09:08;23.30;94.40
51589;DHT22;37671;53.258;6.460;2022-07-29T16:11:33;23.30;94.80
51589;DHT22;37671;53.258;6.460;2022-07-29T16:13:59;23.20;95.00
51589;DHT22;37671;53.258;6.460;2022-07-29T16:16:24;23.20;95.00
51589;DHT22;37671;53.258;6.460;2022-07-29T16:18:50;23.20;95.00
51589;DHT22;37671;53.258;6.460;2022-07-29T16:21:15;23.30;93.70
51589;DHT22;37671;53.258;6.460;2022-07-29T16:23:41;23.40;94.40
51589;DHT22;37671;53.258;6.460;2022-07-29T16:26:07;23.50;94.70
51589;DHT22;37671;53.258;6.460;2022-07-29T16:28:33;23.60;94.00
51589;DHT22;37671;53.258;6.460;2022-07-29T16:30:59;23.70;95.60
51589;DHT22;37671;53.258;6.460;2022-07-29T16:33:24;23.70;96.00
51589;DHT22;37671;53.258;6.460;2022-07-29T16:35:51;23.80;96.40
51589;DHT22;37671;53.258;6.460;2022-07-29T16:38:17;23.80;96.40
51589;DHT22;37671;53.258;6.460;2022-07-29T16:40:43;23.80;96.40
51589;DHT22;37671;53.258;6.460;2022-07-29T16:43:09;23.70;96.90
51589;DHT22;37671;53.258;6.460;2022-07-29T16:45:35;23.80;97.10
51589;DHT22;37671;53.258;6.460;2022-07-29T16:48:01;23.70;97.80
51589;DHT22;37671;53.258;6.460;2022-07-29T16:50:28;23.80;98.40
51589;DHT22;37671;53.258;6.460;2022-07-29T16:52:54;23.70;98.30
51589;DHT22;37671;53.258;6.460;2022-07-29T16:55:20;23.70;99.00
51589;DHT22;37671;53.258;6.460;2022-07-29T16:57:46;23.70;99.00
51589;DHT22;37671;53.258;6.460;2022-07-29T17:00:14;23.60;99.40
51589;DHT22;37671;53.258;6.460;2022-07-29T17:02:41;23.50;99.50
51589;DHT22;37671;53.258;6.460;2022-07-29T17:05:07;23.30;99.90
51589;DHT22;37671;53.258;6.460;2022-07-29T17:07:36;23.30;99.90
51589;DHT22;37671;53.258;6.460;2022-07-29T17:10:02;23.40;99.90
51589;DHT22;37671;53.258;6.460;2022-07-29T17:12:37;23.20;99.90
51589;DHT22;37671;53.258;6.460;2022-07-29T17:15:04;23.10;99.90
51589;DHT22;37671;53.258;6.460;2022-07-29T17:17:30;23.00;99.90
51589;DHT22;37671;53.258;6.460;2022-07-29T17:19:56;22.90;99.90
51589;DHT22;37671;53.258;6.460;2022-07-29T17:22:21;22.90;99.90
51589;DHT22;37671;53.258;6.460;2022-07-29T17:24:47;22.80;99.90
51589;DHT22;37671;53.258;6.460;2022-07-29T17:27:13;22.70;99.90
51589;DHT22;37671;53.258;6.460;2022-07-29T17:29:39;22.60;99.90
51589;DHT22;37671;53.258;6.460;2022-07-29T17:32:04;22.60;99.90
51589;DHT22;37671;53.258;6.460;2022-07-29T17:34:30;22.50;99.90
51589;DHT22;37671;53.258;6.460;2022-07-29T17:36:56;22.50;99.90
51589;DHT22;37671;53.258;6.460;2022-07-29T17:39:21;22.40;99.90
51589;DHT22;37671;53.258;6.460;2022-07-29T17:41:47;22.40;99.90
51589;DHT22;37671;53.258;6.460;2022-07-29T17:44:13;22.40;99.90
51589;DHT22;37671;53.258;6.460;2022-07-29T17:46:39;22.20;99.90
51589;DHT22;37671;53.258;6.460;2022-07-29T17:49:05;22.30;99.90
51589;DHT22;37671;53.258;6.460;2022-07-29T17:51:31;22.20;99.90
51589;DHT22;37671;53.258;6.460;2022-07-29T17:53:57;22.10;99.90
51589;DHT22;37671;53.258;6.460;2022-07-29T17:56:24;22.10;99.90
51589;DHT22;37671;53.258;6.460;2022-07-29T17:58:52;21.90;99.90
51589;DHT22;37671;53.258;6.460;2022-07-29T18:01:18;22.00;99.90
51589;DHT22;37671;53.258;6.460;2022-07-29T18:03:44;21.90;99.90
51589;DHT22;37671;53.258;6.460;2022-07-29T18:06:10;21.90;99.90
51589;DHT22;37671;53.258;6.460;2022-07-29T18:08:36;21.90;99.90
51589;DHT22;37671;53.258;6.460;2022-07-29T18:11:02;21.80;99.90
51589;DHT22;37671;53.258;6.460;2022-07-29T18:13:28;21.70;99.90
51589;DHT22;37671;53.258;6.460;2022-07-29T18:15:53;21.60;99.90
51589;DHT22;37671;53.258;6.460;2022-07-29T18:18:19;21.60;99.90
51589;DHT22;37671;53.258;6.460;2022-07-29T18:20:45;21.60;99.90
51589;DHT22;37671;53.258;6.460;2022-07-29T18:23:11;21.60;99.90
51589;DHT22;37671;53.258;6.460;2022-07-29T18:25:37;21.50;99.90
51589;DHT22;37671;53.258;6.460;2022-07-29T18:28:04;21.60;99.90
51589;DHT22;37671;53.258;6.460;2022-07-29T18:30:30;21.50;99.90
51589;DHT22;37671;53.258;6.460;2022-07-29T18:32:59;21.40;99.90
51589;DHT22;37671;53.258;6.460;2022-07-29T18:35:24;21.40;99.90
51589;DHT22;37671;53.258;6.460;2022-07-29T18:37:52;21.30;99.90
51589;DHT22;37671;53.258;6.460;2022-07-29T18:40:20;21.30;99.90
51589;DHT22;37671;53.258;6.460;2022-07-29T18:42:48;21.40;99.90
51589;DHT22;37671;53.258;6.460;2022-07-29T18:45:16;21.30;99.90
51589;DHT22;37671;53.258;6.460;2022-07-29T18:47:41;21.30;99.90
51589;DHT22;37671;53.258;6.460;2022-07-29T18:50:10;21.40;99.90
51589;DHT22;37671;53.258;6.460;2022-07-29T18:52:36;21.30;99.90
51589;DHT22;37671;53.258;6.460;2022-07-29T18:55:02;21.30;99.90
51589;DHT22;37671;53.258;6.460;2022-07-29T18:57:30;21.20;99.90
51589;DHT22;37671;53.258;6.460;2022-07-29T18:59:59;21.20;99.90
51589;DHT22;37671;53.258;6.460;2022-07-29T19:02:24;21.10;99.90
51589;DHT22;37671;53.258;6.460;2022-07-29T19:04:50;20.90;99.90
51589;DHT22;37671;53.258;6.460;2022-07-29T19:07:19;20.90;99.90
51589;DHT22;37671;53.258;6.460;2022-07-29T19:09:47;20.80;99.90
51589;DHT22;37671;53.258;6.460;2022-07-29T19:12:12;20.80;99.90
51589;DHT22;37671;53.258;6.460;2022-07-29T19:14:38;20.70;99.90
51589;DHT22;37671;53.258;6.460;2022-07-29T19:17:03;20.70;99.90
51589;DHT22;37671;53.258;6.460;2022-07-29T19:19:29;20.60;99.90
51589;DHT22;37671;53.258;6.460;2022-07-29T19:21:55;20.50;99.90
51589;DHT22;37671;53.258;6.460;2022-07-29T19:24:20;20.40;99.90
51589;DHT22;37671;53.258;6.460;2022-07-29T19:26:46;20.40;99.90
51589;DHT22;37671;53.258;6.460;2022-07-29T19:29:15;20.20;99.90
51589;DHT22;37671;53.258;6.460;2022-07-29T19:31:41;20.30;99.90
51589;DHT22;37671;53.258;6.460;2022-07-29T19:34:07;20.20;99.90
51589;DHT22;37671;53.258;6.460;2022-07-29T19:36:34;20.20;99.90
51589;DHT22;37671;53.258;6.460;2022-07-29T19:38:59;20.10;99.90
51589;DHT22;37671;53.258;6.460;2022-07-29T19:41:26;19.90;99.90
51589;DHT22;37671;53.258;6.460;2022-07-29T19:43:51;19.80;99.90
51589;DHT22;37671;53.258;6.460;2022-07-29T19:46:17;19.80;99.90
51589;DHT22;37671;53.258;6.460;2022-07-29T19:48:43;19.70;99.90
51589;DHT22;37671;53.258;6.460;2022-07-29T19:51:09;19.70;99.90
51589;DHT22;37671;53.258;6.460;2022-07-29T19:53:34;19.70;99.90
51589;DHT22;37671;53.258;6.460;2022-07-29T19:56:00;19.50;99.90
51589;DHT22;37671;53.258;6.460;2022-07-29T19:58:29;19.50;99.90
51589;DHT22;37671;53.258;6.460;2022-07-29T20:00:54;19.40;99.90
51589;DHT22;37671;53.258;6.460;2022-07-29T20:03:20;19.40;99.90
51589;DHT22;37671;53.258;6.460;2022-07-29T20:05:46;19.30;99.90
51589;DHT22;37671;53.258;6.460;2022-07-29T20:08:15;19.10;99.90
51589;DHT22;37671;53.258;6.460;2022-07-29T20:10:41;19.20;99.90
51589;DHT22;37671;53.258;6.460;2022-07-29T20:13:09;19.40;99.90
51589;DHT22;37671;53.258;6.460;2022-07-29T20:15:37;19.10;99.90
51589;DHT22;37671;53.258;6.460;2022-07-29T20:18:03;19.10;99.90
51589;DHT22;37671;53.258;6.460;2022-07-29T20:20:29;18.90;99.90
51589;DHT22;37671;53.258;6.460;2022-07-29T20:22:55;18.90;99.90
51589;DHT22;37671;53.258;6.460;2022-07-29T20:25:24;18.70;99.90
51589;DHT22;37671;53.258;6.460;2022-07-29T20:27:50;18.70;99.90
51589;DHT22;37671;53.258;6.460;2022-07-29T20:30:20;18.60;99.90
51589;DHT22;37671;53.258;6.460;2022-07-29T20:32:46;18.50;99.90
51589;DHT22;37671;53.258;6.460;2022-07-29T20:35:12;18.70;99.90
51589;DHT22;37671;53.258;6.460;2022-07-29T20:37:39;18.50;99.90
51589;DHT22;37671;53.258;6.460;2022-07-29T20:40:06;18.40;99.90
51589;DHT22;37671;53.258;6.460;2022-07-29T20:42:32;18.00;99.90
51589;DHT22;37671;53.258;6.460;2022-07-29T20:45:02;17.80;99.90
51589;DHT22;37671;53.258;6.460;2022-07-29T20:47:27;17.70;99.90
51589;DHT22;37671;53.258;6.460;2022-07-29T20:49:53;17.60;99.90
51589;DHT22;37671;53.258;6.460;2022-07-29T20:52:19;17.50;99.90
51589;DHT22;37671;53.258;6.460;2022-07-29T20:54:48;17.50;99.90
51589;DHT22;37671;53.258;6.460;2022-07-29T20:57:14;17.50;99.90
51589;DHT22;37671;53.258;6.460;2022-07-29T20:59:43;17.60;99.90
51589;DHT22;37671;53.258;6.460;2022-07-29T21:02:09;17.60;99.90
51589;DHT22;37671;53.258;6.460;2022-07-29T21:04:35;17.50;99.90
51589;DHT22;37671;53.258;6.460;2022-07-29T21:07:02;18.10;99.90
51589;DHT22;37671;53.258;6.460;2022-07-29T21:09:28;17.40;99.90
51589;DHT22;37671;53.258;6.460;2022-07-29T21:11:57;17.70;99.90
51589;DHT22;37671;53.258;6.460;2022-07-29T21:14:25;17.30;99.90